createdAt,value
2019-06-20T00:01:53.642Z,17.20
2019-06-20T00:04:19.710Z,17.20
2019-06-20T00:06:45.795Z,17.20
2019-06-20T00:09:11.961Z,17.10
2019-06-20T00:11:38.019Z,17.10
2019-06-20T00:14:04.136Z,17.10
2019-06-20T00:16:30.199Z,17.00
2019-06-20T00:18:56.264Z,17.00
2019-06-20T00:21:22.328Z,16.90
2019-06-20T00:23:48.394Z,16.90
2019-06-20T00:26:14.571Z,16.90
2019-06-20T00:28:40.693Z,16.80
2019-06-20T00:31:06.859Z,16.80
2019-06-20T00:33:32.908Z,16.80
2019-06-20T00:35:58.966Z,16.70
2019-06-20T00:38:25.055Z,16.70
2019-06-20T00:40:51.224Z,16.70
2019-06-20T00:43:18.458Z,16.60
2019-06-20T00:45:44.745Z,16.60
2019-06-20T00:48:10.795Z,16.60
2019-06-20T00:50:36.891Z,16.60
2019-06-20T00:53:03.085Z,16.60
2019-06-20T00:55:29.232Z,16.60
2019-06-20T00:57:55.377Z,16.60
2019-06-20T01:00:21.834Z,16.60
2019-06-20T01:02:47.920Z,16.70
2019-06-20T01:05:13.982Z,16.70
2019-06-20T01:07:40.035Z,16.70
2019-06-20T01:10:06.699Z,16.80
2019-06-20T01:12:33.045Z,16.80
2019-06-20T01:14:59.495Z,16.70
2019-06-20T01:19:58.324Z,16.70
2019-06-20T01:22:24.932Z,16.70
2019-06-20T01:24:52.257Z,16.70
2019-06-20T01:27:20.046Z,16.60
2019-06-20T01:29:47.011Z,16.60
2019-06-20T01:32:15.860Z,16.60
2019-06-20T01:34:41.982Z,16.60
2019-06-20T01:37:08.031Z,16.60
2019-06-20T01:39:41.795Z,16.50
2019-06-20T01:42:08.264Z,16.40
2019-06-20T01:44:34.367Z,16.40
2019-06-20T01:47:00.420Z,16.40
2019-06-20T01:49:26.504Z,16.40
2019-06-20T01:51:52.564Z,16.30
2019-06-20T01:54:18.648Z,16.30
2019-06-20T01:56:44.783Z,16.30
2019-06-20T01:59:10.840Z,16.30
2019-06-20T02:01:36.929Z,16.30
2019-06-20T02:04:03.579Z,16.20
2019-06-20T02:06:29.634Z,16.20
2019-06-20T02:08:55.730Z,16.20
2019-06-20T02:11:21.863Z,16.20
2019-06-20T02:13:47.947Z,16.20
2019-06-20T02:16:14.083Z,16.20
2019-06-20T02:18:40.187Z,16.10
2019-06-20T02:21:06.346Z,16.10
2019-06-20T02:23:32.491Z,16.10
2019-06-20T02:25:58.547Z,16.10
2019-06-20T02:28:24.612Z,16.10
2019-06-20T02:30:50.786Z,16.00
2019-06-20T02:33:16.967Z,16.00
2019-06-20T02:35:43.025Z,16.30
2019-06-20T02:38:09.178Z,16.00
2019-06-20T02:40:35.596Z,16.00
2019-06-20T02:43:01.940Z,16.00
2019-06-20T02:45:28.008Z,16.00
2019-06-20T02:47:54.083Z,15.90
2019-06-20T02:50:20.571Z,15.90
2019-06-20T02:52:46.657Z,15.90
2019-06-20T02:55:13.122Z,15.90
2019-06-20T02:57:39.675Z,15.90
2019-06-20T03:00:06.449Z,15.90
2019-06-20T03:02:32.513Z,15.90
2019-06-20T03:04:58.556Z,15.90
2019-06-20T03:07:24.618Z,15.90
2019-06-20T03:09:50.673Z,16.00
2019-06-20T03:12:16.845Z,16.00
2019-06-20T03:14:45.659Z,16.00
2019-06-20T03:17:10.860Z,16.00
2019-06-20T03:19:36.932Z,16.00
2019-06-20T03:22:03.012Z,16.00
2019-06-20T03:24:29.200Z,16.00
2019-06-20T03:26:55.260Z,16.00
2019-06-20T03:29:21.316Z,16.10
2019-06-20T03:31:47.377Z,16.10
2019-06-20T03:34:13.568Z,16.10
2019-06-20T03:36:39.727Z,16.10
2019-06-20T03:39:05.791Z,16.10
2019-06-20T03:41:31.844Z,16.20
2019-06-20T03:43:59.122Z,16.20
2019-06-20T03:46:25.483Z,16.20
2019-06-20T03:48:51.551Z,16.20
2019-06-20T03:51:17.620Z,16.30
2019-06-20T03:53:43.683Z,16.30
2019-06-20T03:56:09.756Z,16.30
2019-06-20T03:58:35.824Z,16.30
2019-06-20T04:01:01.884Z,16.30
2019-06-20T04:03:27.948Z,16.40
2019-06-20T04:05:54.021Z,16.40
2019-06-20T04:08:20.120Z,16.40
2019-06-20T04:10:46.198Z,16.40
2019-06-20T04:13:12.354Z,16.50
2019-06-20T04:15:38.403Z,16.60
2019-06-20T04:18:04.467Z,16.60
2019-06-20T04:20:30.519Z,16.90
2019-06-20T04:22:56.579Z,16.90
2019-06-20T04:25:23.547Z,17.00
2019-06-20T04:27:49.734Z,17.20
2019-06-20T04:30:15.997Z,17.30
2019-06-20T04:32:42.047Z,17.40
2019-06-20T04:35:08.314Z,17.50
2019-06-20T04:37:34.395Z,17.70
2019-06-20T04:40:00.491Z,17.80
2019-06-20T04:42:26.545Z,17.90
2019-06-20T04:44:54.512Z,18.00
2019-06-20T04:47:20.569Z,18.20
2019-06-20T04:49:46.628Z,18.30
2019-06-20T04:52:13.467Z,18.40
2019-06-20T04:54:39.531Z,18.50
2019-06-20T04:57:05.623Z,18.60
2019-06-20T04:59:31.776Z,18.50
2019-06-20T05:01:57.829Z,18.40
2019-06-20T05:04:23.887Z,18.40
2019-06-20T05:06:53.749Z,18.40
2019-06-20T05:09:19.812Z,18.40
2019-06-20T05:11:45.863Z,18.40
2019-06-20T05:14:12.046Z,18.40
2019-06-20T05:16:38.196Z,18.40
2019-06-20T05:19:04.268Z,18.50
2019-06-20T05:21:30.327Z,18.60
2019-06-20T05:23:56.401Z,18.80
2019-06-20T05:26:22.460Z,19.00
2019-06-20T05:28:48.555Z,19.30
2019-06-20T05:31:14.624Z,19.60
2019-06-20T05:33:40.699Z,20.00
2019-06-20T05:36:08.659Z,20.30
2019-06-20T05:38:34.818Z,20.50
2019-06-20T05:41:01.113Z,20.60
2019-06-20T05:43:27.365Z,20.70
2019-06-20T05:46:08.269Z,20.80
2019-06-20T05:48:21.716Z,20.90
2019-06-20T05:50:48.612Z,21.00
2019-06-20T05:53:14.837Z,21.20
2019-06-20T05:55:40.918Z,21.40
2019-06-20T05:58:07.048Z,21.40
2019-06-20T06:00:33.112Z,21.30
2019-06-20T06:02:59.189Z,21.20
2019-06-20T06:05:25.348Z,21.10
2019-06-20T06:07:51.396Z,21.00
2019-06-20T06:10:17.462Z,20.80
2019-06-20T06:12:43.624Z,20.70
2019-06-20T06:15:10.413Z,20.50
2019-06-20T06:17:36.602Z,20.50
2019-06-20T06:20:06.518Z,20.40
2019-06-20T06:22:32.641Z,20.30
2019-06-20T06:24:58.797Z,20.40
2019-06-20T06:27:24.964Z,20.40
2019-06-20T06:29:51.119Z,20.20
2019-06-20T06:32:20.067Z,20.20
2019-06-20T06:34:45.372Z,20.10
2019-06-20T06:37:11.429Z,20.00
2019-06-20T06:39:37.510Z,19.90
2019-06-20T06:42:03.660Z,19.90
2019-06-20T06:44:31.773Z,19.80
2019-06-20T06:46:59.748Z,19.80
2019-06-20T06:49:26.089Z,19.70
2019-06-20T06:51:52.158Z,19.70
2019-06-20T06:54:18.219Z,19.70
2019-06-20T06:56:44.353Z,19.70
2019-06-20T06:59:10.536Z,19.60
2019-06-20T07:01:36.604Z,19.50
2019-06-20T07:04:03.015Z,19.40
2019-06-20T07:06:29.414Z,19.40
2019-06-20T07:08:56.022Z,19.40
2019-06-20T07:11:22.289Z,19.30
2019-06-20T07:13:48.436Z,19.30
2019-06-20T07:16:14.512Z,19.20
2019-06-20T07:18:40.680Z,19.20
2019-06-20T07:21:06.782Z,19.20
2019-06-20T07:23:33.333Z,19.10
2019-06-20T07:25:59.388Z,19.00
2019-06-20T07:28:25.461Z,19.00
2019-06-20T07:30:51.525Z,19.00
2019-06-20T07:33:17.578Z,19.00
2019-06-20T07:35:43.686Z,19.00
2019-06-20T07:38:09.836Z,19.00
2019-06-20T07:40:35.895Z,19.00
2019-06-20T07:43:01.952Z,19.00
2019-06-20T07:45:28.029Z,19.00
2019-06-20T07:47:54.632Z,18.90
2019-06-20T07:50:20.685Z,18.90
2019-06-20T07:53:00.875Z,18.90
2019-06-20T07:58:38.331Z,18.90
2019-06-20T08:01:04.726Z,19.00
2019-06-20T08:03:30.858Z,19.10
2019-06-20T08:05:57.083Z,19.10
2019-06-20T08:08:23.275Z,19.20
2019-06-20T08:10:49.403Z,19.40
2019-06-20T08:13:15.527Z,19.50
2019-06-20T08:15:41.732Z,19.80
2019-06-20T08:18:07.796Z,20.00
2019-06-20T08:20:34.062Z,20.20
2019-06-20T08:23:00.325Z,20.40
2019-06-20T08:25:26.389Z,20.70
2019-06-20T08:27:57.134Z,21.00
2019-06-20T08:30:26.696Z,21.30
2019-06-20T08:32:52.834Z,21.30
2019-06-20T08:35:21.664Z,21.30
2019-06-20T08:37:47.831Z,21.20
2019-06-20T08:40:14.312Z,21.00
2019-06-20T08:42:40.371Z,20.90
2019-06-20T08:45:07.131Z,20.80
2019-06-20T08:47:33.317Z,20.70
2019-06-20T08:49:59.762Z,20.80
2019-06-20T08:52:26.047Z,20.90
2019-06-20T08:54:52.197Z,21.00
2019-06-20T08:57:18.291Z,21.10
2019-06-20T08:59:44.356Z,21.20
2019-06-20T09:02:10.422Z,21.40
2019-06-20T09:04:36.497Z,21.50
2019-06-20T09:07:05.543Z,21.70
2019-06-20T09:09:30.575Z,21.70
2019-06-20T09:11:56.634Z,21.80
2019-06-20T09:14:22.687Z,22.00
2019-06-20T09:16:48.819Z,22.20
2019-06-20T09:19:14.967Z,22.40
2019-06-20T09:21:41.052Z,22.50
2019-06-20T09:24:07.103Z,22.60
2019-06-20T09:26:33.203Z,22.80
2019-06-20T09:28:59.404Z,22.80
2019-06-20T09:31:25.530Z,22.80
2019-06-20T09:33:52.617Z,22.60
2019-06-20T09:36:19.565Z,22.60
2019-06-20T09:38:45.720Z,22.60
2019-06-20T09:41:11.830Z,22.60
2019-06-20T09:43:37.889Z,22.60
2019-06-20T09:46:03.975Z,22.70
2019-06-20T09:48:30.154Z,22.70
2019-06-20T09:50:57.015Z,22.60
2019-06-20T09:53:23.331Z,22.40
2019-06-20T09:55:50.050Z,22.10
2019-06-20T09:58:16.252Z,21.90
2019-06-20T10:00:42.430Z,21.90
2019-06-20T10:03:08.682Z,21.80
2019-06-20T10:05:35.384Z,21.70
2019-06-20T10:08:01.459Z,21.60
2019-06-20T10:10:28.617Z,21.60
2019-06-20T10:12:55.856Z,21.70
2019-06-20T10:15:24.540Z,21.60
2019-06-20T10:17:51.531Z,21.60
2019-06-20T10:20:18.703Z,21.50
2019-06-20T10:22:45.858Z,21.40
2019-06-20T10:25:12.923Z,20.70
2019-06-20T10:27:38.986Z,21.50
2019-06-20T10:30:14.308Z,21.70
2019-06-20T10:32:34.085Z,22.00
2019-06-20T10:35:00.363Z,22.20
2019-06-20T10:37:26.504Z,22.50
2019-06-20T10:39:52.553Z,23.00
2019-06-20T10:42:18.615Z,23.50
2019-06-20T10:44:45.748Z,23.70
2019-06-20T10:47:11.876Z,23.70
2019-06-20T10:49:38.040Z,23.60
2019-06-20T10:52:05.805Z,23.50
2019-06-20T10:54:31.863Z,23.60
2019-06-20T10:56:58.017Z,23.70
2019-06-20T10:59:24.196Z,23.90
2019-06-20T11:01:50.852Z,24.00
2019-06-20T11:04:16.911Z,24.10
2019-06-20T11:06:43.203Z,24.30
2019-06-20T11:09:09.645Z,24.30
2019-06-20T11:11:35.995Z,24.40
2019-06-20T11:14:02.262Z,24.50
2019-06-20T11:16:28.335Z,24.60
2019-06-20T11:18:54.484Z,24.80
2019-06-20T11:21:20.572Z,24.90
2019-06-20T11:23:47.416Z,25.00
2019-06-20T11:26:13.711Z,24.90
2019-06-20T11:28:39.816Z,24.70
2019-06-20T11:31:05.880Z,24.60
2019-06-20T11:33:31.986Z,24.60
2019-06-20T11:35:58.032Z,24.80
2019-06-20T11:38:24.140Z,24.90
2019-06-20T11:40:50.255Z,25.10
2019-06-20T11:43:16.330Z,25.20
2019-06-20T11:45:43.040Z,25.20
2019-06-20T11:48:09.283Z,25.40
2019-06-20T11:50:36.306Z,25.40
2019-06-20T11:53:02.713Z,25.40
2019-06-20T11:55:28.778Z,25.40
2019-06-20T11:57:54.854Z,25.40
2019-06-20T12:00:21.810Z,25.20
2019-06-20T12:02:48.381Z,25.10
2019-06-20T12:05:15.346Z,24.90
2019-06-20T12:07:43.159Z,24.80
2019-06-20T12:10:11.754Z,24.70
2019-06-20T12:12:39.572Z,24.40
2019-06-20T12:15:07.919Z,24.30
2019-06-20T12:17:45.271Z,24.10
2019-06-20T12:20:13.689Z,23.90
2019-06-20T12:22:41.707Z,23.80
2019-06-20T12:25:09.060Z,23.70
2019-06-20T12:27:35.346Z,23.70
2019-06-20T12:30:05.821Z,23.80
2019-06-20T12:32:32.140Z,24.00
2019-06-20T12:34:58.340Z,24.30
2019-06-20T12:37:24.492Z,24.60
2019-06-20T12:39:50.557Z,24.90
2019-06-20T12:42:16.676Z,25.20
2019-06-20T12:44:44.158Z,25.30
2019-06-20T12:47:10.416Z,25.20
2019-06-20T12:49:37.293Z,25.10
2019-06-20T12:52:04.455Z,24.90
2019-06-20T12:54:30.512Z,24.70
2019-06-20T12:56:56.681Z,24.60
2019-06-20T12:59:22.843Z,24.40
2019-06-20T13:01:49.901Z,24.30
2019-06-20T13:04:16.871Z,24.20
2019-06-20T13:06:44.350Z,24.20
2019-06-20T13:09:10.627Z,24.20
2019-06-20T13:11:37.624Z,24.10
2019-06-20T13:14:04.803Z,24.10
2019-06-20T13:16:30.889Z,24.30
2019-06-20T13:18:56.939Z,24.40
2019-06-20T13:21:23.044Z,24.60
2019-06-20T13:23:49.649Z,24.80
2019-06-20T13:26:15.874Z,25.00
2019-06-20T13:28:57.111Z,25.10
2019-06-20T13:31:10.023Z,25.10
2019-06-20T13:33:36.067Z,25.40
2019-06-20T13:36:02.378Z,25.20
2019-06-20T13:38:28.675Z,25.20
2019-06-20T13:40:54.776Z,25.30
2019-06-20T13:43:20.843Z,25.40
2019-06-20T13:45:47.285Z,25.60
2019-06-20T13:48:13.592Z,25.90
2019-06-20T13:50:40.424Z,26.10
2019-06-20T13:53:07.619Z,26.30
2019-06-20T13:55:33.713Z,26.40
2019-06-20T13:57:59.778Z,26.30
2019-06-20T14:00:26.375Z,26.00
2019-06-20T14:02:52.495Z,25.50
2019-06-20T14:05:18.862Z,25.00
2019-06-20T14:07:48.420Z,24.60
2019-06-20T14:10:13.400Z,24.20
2019-06-20T14:12:40.041Z,23.80
2019-06-20T14:15:07.920Z,23.60
2019-06-20T14:17:33.984Z,23.40
2019-06-20T14:20:00.036Z,23.30
2019-06-20T14:22:26.122Z,23.20
2019-06-20T14:24:53.700Z,23.20
2019-06-20T14:27:20.075Z,23.10
2019-06-20T14:29:46.526Z,23.10
2019-06-20T14:32:21.755Z,23.00
2019-06-20T14:34:42.776Z,23.00
2019-06-20T14:37:09.183Z,23.00
2019-06-20T14:39:35.249Z,23.00
2019-06-20T14:42:01.408Z,22.90
2019-06-20T14:44:27.559Z,22.90
2019-06-20T14:46:54.273Z,22.90
2019-06-20T14:49:20.524Z,23.00
2019-06-20T14:51:47.145Z,23.10
2019-06-20T14:54:14.544Z,23.30
2019-06-20T14:56:40.669Z,23.50
2019-06-20T14:59:06.820Z,23.60
2019-06-20T15:01:32.881Z,23.60
2019-06-20T15:03:58.936Z,23.50
2019-06-20T15:06:24.992Z,23.50
2019-06-20T15:08:54.542Z,23.60
2019-06-20T15:11:19.064Z,23.70
2019-06-20T15:13:46.189Z,23.80
2019-06-20T15:16:13.121Z,23.80
2019-06-20T15:18:39.275Z,23.80
2019-06-20T15:21:05.371Z,23.70
2019-06-20T15:23:31.506Z,23.60
2019-06-20T15:25:57.656Z,23.50
2019-06-20T15:28:23.704Z,23.50
2019-06-20T15:30:50.842Z,23.50
2019-06-20T15:33:17.043Z,23.40
2019-06-20T15:35:43.212Z,23.20
2019-06-20T15:38:09.360Z,23.00
2019-06-20T15:40:35.440Z,22.80
2019-06-20T15:43:01.598Z,22.60
2019-06-20T15:45:27.662Z,22.50
2019-06-20T15:47:53.711Z,22.30
2019-06-20T15:50:19.958Z,22.20
2019-06-20T15:52:46.189Z,22.10
2019-06-20T15:55:16.176Z,22.20
2019-06-20T15:57:42.359Z,22.30
2019-06-20T16:00:10.313Z,22.60
2019-06-20T16:02:36.379Z,22.80
2019-06-20T16:05:06.387Z,23.00
2019-06-20T16:07:32.451Z,23.20
2019-06-20T16:09:58.504Z,23.40
2019-06-20T16:12:24.577Z,23.50
2019-06-20T16:14:50.671Z,23.70
2019-06-20T16:17:17.589Z,23.90
2019-06-20T16:19:43.767Z,24.00
2019-06-20T16:22:09.924Z,24.00
2019-06-20T16:24:36.117Z,24.00
2019-06-20T16:27:02.390Z,23.60
2019-06-20T16:29:28.575Z,23.40
2019-06-20T16:31:54.660Z,23.20
2019-06-20T16:34:20.857Z,23.00
2019-06-20T16:36:47.306Z,22.80
2019-06-20T16:39:13.532Z,22.70
2019-06-20T16:41:39.640Z,22.60
2019-06-20T16:44:05.707Z,22.50
2019-06-20T16:46:31.752Z,22.50
2019-06-20T16:48:57.814Z,22.60
2019-06-20T16:51:24.046Z,22.60
2019-06-20T16:53:50.108Z,22.70
2019-06-20T16:56:16.335Z,22.80
2019-06-20T16:58:42.520Z,22.90
2019-06-20T17:01:08.605Z,23.00
2019-06-20T17:03:41.747Z,23.10
2019-06-20T17:06:03.055Z,23.10
2019-06-20T17:08:29.210Z,23.00
2019-06-20T17:10:55.293Z,22.80
2019-06-20T17:13:21.375Z,22.60
2019-06-20T17:15:47.429Z,22.40
2019-06-20T17:18:13.573Z,22.30
2019-06-20T17:20:39.795Z,22.20
2019-06-20T17:23:05.895Z,22.20
2019-06-20T17:25:31.947Z,22.20
2019-06-20T17:27:58.000Z,22.20
2019-06-20T17:30:24.766Z,22.20
2019-06-20T17:32:50.828Z,22.30
2019-06-20T17:35:17.175Z,22.40
2019-06-20T17:37:45.070Z,22.40
2019-06-20T17:40:13.208Z,22.40
2019-06-20T17:42:39.386Z,22.50
2019-06-20T17:45:06.456Z,22.50
2019-06-20T17:47:32.508Z,22.50
2019-06-20T17:49:58.643Z,22.50
2019-06-20T17:52:24.791Z,22.60
2019-06-20T17:54:50.876Z,22.70
2019-06-20T17:57:16.946Z,22.80
2019-06-20T17:59:43.108Z,22.90
2019-06-20T18:02:09.216Z,23.00
2019-06-20T18:04:35.360Z,23.20
2019-06-20T18:07:01.411Z,23.30
2019-06-20T18:09:27.473Z,23.40
2019-06-20T18:11:53.701Z,23.50
2019-06-20T18:14:19.774Z,23.60
2019-06-20T18:16:45.839Z,23.70
2019-06-20T18:19:12.321Z,23.60
2019-06-20T18:21:38.392Z,23.70
2019-06-20T18:24:04.568Z,23.20
2019-06-20T18:26:30.635Z,23.00
2019-06-20T18:28:56.700Z,22.70
2019-06-20T18:31:22.760Z,22.40
2019-06-20T18:33:48.848Z,22.10
2019-06-20T18:36:14.903Z,21.80
2019-06-20T18:38:41.596Z,21.50
2019-06-20T18:41:07.683Z,21.30
2019-06-20T18:43:33.747Z,21.10
2019-06-20T18:45:59.909Z,20.80
2019-06-20T18:48:26.068Z,20.60
2019-06-20T18:50:52.225Z,20.40
2019-06-20T18:55:44.855Z,20.00
2019-06-20T18:58:10.905Z,19.90
2019-06-20T19:00:36.959Z,19.80
2019-06-20T19:03:03.613Z,19.60
2019-06-20T19:05:29.763Z,19.50
2019-06-20T19:07:55.914Z,19.40
2019-06-20T19:10:23.663Z,19.40
2019-06-20T19:12:49.826Z,19.30
2019-06-20T19:15:18.201Z,19.20
2019-06-20T19:17:44.268Z,19.20
2019-06-20T19:20:11.858Z,19.20
2019-06-20T19:22:37.905Z,19.20
2019-06-20T19:25:05.578Z,19.20
2019-06-20T19:27:45.082Z,19.20
2019-06-20T19:29:59.692Z,19.20
2019-06-20T19:32:25.802Z,19.20
2019-06-20T19:35:01.408Z,19.20
2019-06-20T19:37:19.815Z,19.20
2019-06-20T19:39:52.696Z,19.20
2019-06-20T19:42:20.637Z,19.10
2019-06-20T19:44:46.745Z,19.10
2019-06-20T19:47:12.815Z,19.10
2019-06-20T19:49:38.965Z,19.10
2019-06-20T19:52:05.018Z,19.10
2019-06-20T19:54:31.087Z,19.10
2019-06-20T19:56:57.239Z,19.20
2019-06-20T19:59:23.409Z,19.20
2019-06-20T20:01:49.782Z,19.20
2019-06-20T20:04:15.844Z,19.20
2019-06-20T20:06:42.009Z,19.30
2019-06-20T20:09:08.672Z,19.30
2019-06-20T20:11:34.742Z,19.30
2019-06-20T20:14:00.979Z,19.30
2019-06-20T20:16:27.164Z,19.20
2019-06-20T20:18:53.219Z,19.20
2019-06-20T20:21:19.337Z,19.20
2019-06-20T20:23:45.536Z,19.20
2019-06-20T20:26:11.589Z,19.10
2019-06-20T20:28:37.640Z,19.10
2019-06-20T20:31:03.720Z,19.00
2019-06-20T20:33:29.767Z,18.90
2019-06-20T20:35:56.228Z,18.90
2019-06-20T20:38:22.322Z,18.90
2019-06-20T20:40:48.495Z,18.80
2019-06-20T20:43:14.551Z,18.80
2019-06-20T20:45:40.617Z,18.70
2019-06-20T20:48:06.792Z,18.70
2019-06-20T20:50:32.932Z,18.60
2019-06-20T20:52:59.010Z,18.50
2019-06-20T20:55:25.155Z,18.50
2019-06-20T20:57:51.246Z,18.40
2019-06-20T21:00:43.514Z,18.40
2019-06-20T21:03:09.693Z,18.30
2019-06-20T21:05:50.623Z,18.20
2019-06-20T21:08:03.846Z,18.20
2019-06-20T21:10:30.012Z,18.10
2019-06-20T21:12:56.172Z,18.00
2019-06-20T21:15:22.659Z,17.90
2019-06-20T21:17:48.748Z,17.90
2019-06-20T21:20:17.115Z,17.80
2019-06-20T21:22:43.171Z,17.70
2019-06-20T21:25:10.408Z,17.70
2019-06-20T21:27:36.505Z,18.10
2019-06-20T21:30:08.382Z,17.70
2019-06-20T21:32:36.928Z,17.60
2019-06-20T21:35:07.653Z,17.50
2019-06-20T21:37:33.739Z,17.50
2019-06-20T21:39:59.797Z,17.30
2019-06-20T21:42:25.859Z,17.30
2019-06-20T21:44:51.953Z,17.40
2019-06-20T21:47:18.003Z,17.30
2019-06-20T21:49:44.184Z,17.30
2019-06-20T21:52:10.235Z,17.20
2019-06-20T21:54:36.293Z,17.20
2019-06-20T21:57:02.521Z,17.10
2019-06-20T21:59:28.755Z,17.10
2019-06-20T22:01:55.022Z,17.00
2019-06-20T22:04:21.074Z,17.00
2019-06-20T22:06:47.248Z,17.00
2019-06-20T22:09:13.301Z,16.90
2019-06-20T22:11:39.355Z,16.90
2019-06-20T22:14:05.452Z,16.90
2019-06-20T22:16:31.617Z,16.80
2019-06-20T22:18:57.667Z,16.80
2019-06-20T22:21:23.832Z,16.80
2019-06-20T22:23:49.879Z,16.80
2019-06-20T22:26:15.948Z,16.70
2019-06-20T22:31:08.477Z,16.30
2019-06-20T22:33:34.533Z,16.60
2019-06-20T22:36:00.620Z,16.60
2019-06-20T22:38:26.670Z,16.50
2019-06-20T22:40:52.779Z,16.50
2019-06-20T22:43:18.942Z,16.50
2019-06-20T22:45:45.288Z,16.50
2019-06-20T22:48:11.947Z,16.50
2019-06-20T22:50:38.108Z,16.50
2019-06-20T22:53:04.376Z,16.40
2019-06-20T22:55:30.428Z,16.40
2019-06-20T22:57:56.500Z,16.40
2019-06-20T23:00:22.610Z,16.40
2019-06-20T23:02:48.739Z,16.40
2019-06-20T23:05:14.839Z,16.30
2019-06-20T23:07:40.954Z,16.30
2019-06-20T23:10:10.932Z,16.30
2019-06-20T23:12:35.588Z,16.20
2019-06-20T23:15:03.488Z,16.30
2019-06-20T23:17:29.585Z,16.30
2019-06-20T23:19:55.641Z,16.20
2019-06-20T23:22:21.692Z,16.20
2019-06-20T23:24:47.797Z,16.10
2019-06-20T23:27:14.284Z,16.10
2019-06-20T23:32:06.928Z,16.10
2019-06-20T23:34:33.092Z,16.10
2019-06-20T23:37:12.355Z,16.00
2019-06-20T23:39:28.426Z,16.00
2019-06-20T23:41:54.704Z,16.00
2019-06-20T23:44:21.573Z,16.00
2019-06-20T23:46:47.651Z,15.90
2019-06-20T23:49:13.731Z,16.00
2019-06-20T23:51:47.487Z,16.00
2019-06-20T23:54:13.541Z,15.90
2019-06-20T23:56:39.659Z,15.90
2019-06-20T23:59:05.839Z,15.90
